Time;durP1;ratioP1;P1;durP2;ratioP2;P2;SDS_P1;SDS_P2;PMS_P1;PMS_P2;Temp;Humidity;BMP_temperature;BMP_pressure;BME280_temperature;BME280_humidity;BME280_pressure;Samples;Min_cycle;Max_cycle;Signal;HPM_P1;HPM_P2
2021/05/06 00:32:06;;;;;;;4.30;2.92;;;6.40;99.90;;;;;;5073666;28;20267;-64
2021/05/06 00:34:34;;;;;;;4.35;2.40;;;6.40;99.90;;;;;;5073628;28;20678;-64
2021/05/06 00:37:01;;;;;;;4.60;3.25;;;6.40;99.90;;;;;;5073785;28;20275;-64
2021/05/06 00:39:37;;;;;;;2.80;2.55;;;6.30;99.90;;;;;;5073356;28;20211;-65
2021/05/06 00:42:27;;;;;;;4.88;2.95;;;6.40;99.90;;;;;;5073492;28;20287;-65
2021/05/06 00:45:33;;;;;;;2.97;2.42;;;6.30;99.90;;;;;;5073306;28;20207;-65
2021/05/06 01:04:04;;;;;;;3.65;2.53;;;6.50;99.90;;;;;;5073226;28;20271;-65
2021/05/06 01:06:34;;;;;;;4.60;2.20;;;6.50;99.90;;;;;;5072945;28;20682;-65
2021/05/06 01:09:06;;;;;;;4.75;2.25;;;6.60;99.90;;;;;;5073045;28;20212;-65
2021/05/06 01:11:51;;;;;;;2.47;2.28;;;6.60;99.90;;;;;;5073133;28;20200;-65
2021/05/06 01:14:18;;;;;;;3.05;2.47;;;6.60;99.90;;;;;;5072806;28;20275;-65
2021/05/06 01:16:44;;;;;;;4.93;2.80;;;6.60;99.90;;;;;;5073030;28;20337;-65
2021/05/06 01:19:11;;;;;;;3.00;2.20;;;6.60;99.90;;;;;;5072989;28;20282;-65
2021/05/06 01:21:37;;;;;;;2.60;2.40;;;6.60;99.90;;;;;;5072868;28;20298;-65
2021/05/06 01:24:04;;;;;;;2.45;2.25;;;6.70;99.90;;;;;;5074077;28;20219;-65
2021/05/06 01:26:38;;;;;;;4.03;2.13;;;6.70;99.90;;;;;;5072838;28;20196;-65
2021/05/06 01:29:14;;;;;;;2.00;1.90;;;6.70;99.90;;;;;;5071598;28;20698;-65
2021/05/06 01:31:48;;;;;;;5.03;2.30;;;6.70;99.90;;;;;;5071430;28;20311;-65
2021/05/06 01:34:19;;;;;;;3.50;2.10;;;6.70;99.90;;;;;;5073155;28;20287;-65
2021/05/06 01:37:10;;;;;;;5.85;2.05;;;6.80;99.90;;;;;;5073092;28;20586;-65
2021/05/06 02:00:34;;;;;;;3.97;2.38;;;6.90;99.90;;;;;;5072831;28;20264;-65
2021/05/06 02:03:01;;;;;;;4.50;2.55;;;6.90;99.90;;;;;;5075221;28;20218;-65
2021/05/06 02:05:28;;;;;;;4.13;1.90;;;6.90;99.90;;;;;;5076223;28;20230;-65
2021/05/06 02:07:55;;;;;;;2.08;1.90;;;6.90;99.90;;;;;;5076034;28;20616;-65
2021/05/06 02:10:25;;;;;;;2.88;2.58;;;6.90;99.90;;;;;;5076379;28;20573;-65
2021/05/06 02:12:51;;;;;;;2.75;1.90;;;6.90;99.90;;;;;;5076091;28;20318;-65
2021/05/06 02:15:31;;;;;;;3.65;2.15;;;6.90;99.90;;;;;;5075992;28;20227;-65
2021/05/06 02:17:58;;;;;;;2.88;1.83;;;6.90;99.90;;;;;;5074848;28;20660;-65
2021/05/06 02:20:25;;;;;;;7.53;3.50;;;6.80;99.90;;;;;;5075750;28;20283;-65
2021/05/06 02:22:52;;;;;;;4.05;3.67;;;6.80;99.90;;;;;;5075449;28;20319;-65
2021/05/06 02:25:20;;;;;;;2.95;2.75;;;6.80;99.90;;;;;;5075886;28;20207;-65
2021/05/06 02:27:47;;;;;;;5.65;4.20;;;6.80;99.90;;;;;;5075928;28;20290;-65
2021/05/06 02:30:17;;;;;;;3.05;2.30;;;6.80;99.90;;;;;;5075432;28;20307;-65
2021/05/06 02:32:43;;;;;;;2.63;2.03;;;6.80;99.90;;;;;;5075782;28;20259;-65
2021/05/06 02:35:10;;;;;;;3.58;2.30;;;6.90;99.90;;;;;;5075676;28;20200;-65
2021/05/06 02:37:36;;;;;;;7.95;2.80;;;6.90;99.90;;;;;;5075660;28;20184;-65
2021/05/06 02:40:05;;;;;;;6.95;3.38;;;6.80;99.90;;;;;;5075441;28;20242;-65
2021/05/06 02:42:32;;;;;;;3.97;2.92;;;6.90;99.90;;;;;;5075626;28;20283;-66
2021/05/06 02:44:58;;;;;;;2.17;2.08;;;6.90;99.90;;;;;;5075936;28;20228;-65
2021/05/06 02:47:25;;;;;;;4.25;2.00;;;6.80;99.90;;;;;;5075565;28;20200;-65
2021/05/06 02:49:52;;;;;;;3.95;2.08;;;6.90;99.90;;;;;;5075435;28;20279;-65
2021/05/06 02:54:50;;;;;;;3.45;2.40;;;6.90;99.90;;;;;;5075671;28;20701;-65
2021/05/06 03:05:33;;;;;;;4.65;2.58;;;6.90;99.90;;;;;;5060981;28;20295;-65
2021/05/06 03:08:13;;;;;;;3.33;1.90;;;6.90;99.90;;;;;;5063884;28;20655;-66
2021/05/06 03:24:19;;;;;;;6.18;2.33;;;6.90;99.90;;;;;;5084539;28;20207;-64
2021/05/06 03:26:45;;;;;;;5.38;2.63;;;6.90;99.90;;;;;;5074448;28;20235;-64
2021/05/06 03:29:18;;;;;;;5.32;2.22;;;6.90;99.90;;;;;;5074806;28;20291;-64
2021/05/06 03:42:32;;;;;;;3.00;2.70;;;7.00;99.90;;;;;;5074072;28;20180;-64
2021/05/06 04:27:30;;;;;;;3.05;2.70;;;6.50;99.90;;;;;;5073808;28;20238;-65
2021/05/06 04:30:38;;;;;;;3.40;2.20;;;6.50;99.90;;;;;;5073462;28;20295;-65
2021/05/06 04:35:38;;;;;;;5.28;2.90;;;6.60;99.90;;;;;;5073655;28;20302;-65
2021/05/06 04:38:07;;;;;;;4.47;2.95;;;6.50;99.90;;;;;;5073759;28;20225;-65
2021/05/06 05:09:40;;;;;;;4.88;2.45;;;6.70;99.90;;;;;;5073244;28;20238;-65
2021/05/06 05:25:34;;;;;;;4.25;2.58;;;6.60;99.90;;;;;;5072901;28;20191;-65
2021/05/06 05:28:03;;;;;;;6.18;3.30;;;6.60;99.90;;;;;;5071813;28;20298;-66
2021/05/06 05:30:31;;;;;;;3.15;2.83;;;6.60;99.90;;;;;;5073089;28;20637;-66
2021/05/06 05:32:58;;;;;;;4.75;3.45;;;6.70;99.90;;;;;;5073522;28;20220;-65
2021/05/06 05:38:10;;;;;;;7.65;3.75;;;6.60;99.90;;;;;;5076199;28;20262;-66
2021/05/06 05:56:35;;;;;;;5.28;3.50;;;6.70;99.90;;;;;;5077003;28;20272;-66
2021/05/06 05:59:02;;;;;;;3.30;3.00;;;6.80;99.90;;;;;;5076383;28;20283;-65
2021/05/06 06:01:29;;;;;;;5.95;3.38;;;6.70;99.90;;;;;;5076343;28;20224;-65
2021/05/06 06:03:56;;;;;;;4.57;3.17;;;6.70;99.90;;;;;;5075551;28;20266;-65
2021/05/06 06:06:22;;;;;;;4.05;3.00;;;6.70;99.90;;;;;;5076333;28;20223;-63
2021/05/06 06:08:49;;;;;;;3.30;3.00;;;6.60;99.90;;;;;;5076328;28;20216;-63
2021/05/06 06:11:16;;;;;;;4.32;3.15;;;6.60;99.90;;;;;;5076283;28;20310;-63
2021/05/06 06:13:46;;;;;;;6.95;3.30;;;6.60;99.90;;;;;;5076111;28;20311;-63
2021/05/06 06:16:21;;;;;;;10.77;3.92;;;6.70;99.90;;;;;;5076483;28;20662;-63
2021/05/06 06:18:59;;;;;;;4.50;3.65;;;6.80;99.90;;;;;;5075992;28;20179;-63
2021/05/06 06:21:51;;;;;;;4.93;3.28;;;6.90;99.90;;;;;;5076566;28;20299;-63
2021/05/06 06:24:13;;;;;;;6.75;3.95;;;7.00;99.90;;;;;;5076738;28;20210;-63
2021/05/06 06:26:39;;;;;;;5.82;3.67;;;7.00;99.90;;;;;;5076458;28;20204;-64
2021/05/06 06:29:11;;;;;;;4.78;3.13;;;7.00;99.90;;;;;;5076396;28;20651;-64
2021/05/06 06:31:41;;;;;;;3.97;3.53;;;6.90;99.90;;;;;;5076543;28;20307;-64
2021/05/06 06:34:08;;;;;;;6.30;3.63;;;7.00;99.90;;;;;;5076195;28;20207;-64
2021/05/06 06:36:35;;;;;;;6.95;3.40;;;7.10;99.90;;;;;;5075835;28;20200;-64
2021/05/06 06:39:03;;;;;;;6.05;2.90;;;6.90;99.90;;;;;;5075069;28;20576;-64
2021/05/06 06:41:29;;;;;;;8.55;4.03;;;6.90;99.90;;;;;;5063481;28;20217;-64
2021/05/06 06:43:59;;;;;;;9.00;3.45;;;6.80;99.90;;;;;;5071915;28;20565;-64
2021/05/06 06:46:25;;;;;;;5.32;3.15;;;6.80;99.90;;;;;;5075181;28;20202;-65
2021/05/06 06:48:52;;;;;;;4.95;3.28;;;6.80;99.90;;;;;;5074752;28;20196;-64
2021/05/06 06:51:18;;;;;;;6.88;3.47;;;6.90;99.90;;;;;;5074986;28;20212;-64
2021/05/06 06:53:44;;;;;;;4.00;2.83;;;7.00;99.90;;;;;;5075118;28;20623;-64
2021/05/06 06:56:11;;;;;;;3.42;3.10;;;7.00;99.90;;;;;;5074910;28;20199;-64
2021/05/06 06:58:39;;;;;;;3.75;3.35;;;7.00;99.90;;;;;;5075141;28;20287;-64
2021/05/06 07:01:07;;;;;;;6.97;3.80;;;7.00;99.90;;;;;;5074418;28;20253;-64
2021/05/06 07:03:35;;;;;;;4.85;3.50;;;7.00;99.90;;;;;;5074935;28;20214;-64
2021/05/06 07:06:02;;;;;;;6.90;4.05;;;7.10;99.90;;;;;;5074442;28;20208;-64
2021/05/06 07:08:33;;;;;;;5.95;3.58;;;7.10;99.90;;;;;;5074766;28;20194;-64
2021/05/06 07:11:01;;;;;;;4.32;3.92;;;7.20;99.90;;;;;;5074367;28;20188;-64
2021/05/06 07:13:28;;;;;;;4.85;3.17;;;7.30;99.90;;;;;;5074795;28;20188;-64
2021/05/06 07:16:01;;;;;;;7.93;3.60;;;7.40;99.90;;;;;;5074688;28;20282;-64
2021/05/06 07:18:28;;;;;;;9.60;5.15;;;7.50;99.90;;;;;;5074183;28;20204;-64
2021/05/06 07:20:55;;;;;;;6.43;4.40;;;7.60;99.90;;;;;;5074171;28;20188;-64
2021/05/06 07:23:23;;;;;;;5.45;4.38;;;7.50;99.90;;;;;;5074687;28;20199;-64
2021/05/06 07:25:55;;;;;;;8.68;5.13;;;7.60;99.90;;;;;;5073693;28;20291;-64
2021/05/06 07:28:36;;;;;;;6.00;4.18;;;7.60;99.90;;;;;;5074537;28;20204;-64
2021/05/06 07:31:04;;;;;;;3.90;3.50;;;7.80;99.90;;;;;;5074434;28;20200;-64
2021/05/06 07:33:31;;;;;;;8.30;3.58;;;7.80;99.90;;;;;;5074581;28;20200;-64
2021/05/06 07:35:59;;;;;;;7.82;3.42;;;7.90;99.90;;;;;;5075015;28;20648;-64
2021/05/06 07:38:27;;;;;;;4.45;3.47;;;7.70;99.90;;;;;;5074443;28;20196;-64
2021/05/06 07:40:54;;;;;;;7.43;4.65;;;7.80;99.90;;;;;;5074557;28;20235;-64
2021/05/06 07:43:22;;;;;;;9.43;4.30;;;7.80;99.90;;;;;;5074201;28;20199;-64
2021/05/06 07:45:49;;;;;;;7.10;3.88;;;7.90;99.90;;;;;;5074184;28;20211;-64
2021/05/06 07:48:15;;;;;;;7.38;4.35;;;8.00;99.90;;;;;;5074911;28;20673;-64
2021/05/06 07:50:42;;;;;;;6.00;5.38;;;8.10;99.90;;;;;;5074539;28;20553;-64
2021/05/06 07:53:14;;;;;;;6.00;4.53;;;8.30;99.90;;;;;;5074116;28;20223;-65
2021/05/06 07:55:41;;;;;;;6.45;3.78;;;8.40;99.90;;;;;;5074399;28;20200;-64
2021/05/06 07:58:07;;;;;;;4.65;4.25;;;8.30;99.90;;;;;;5072579;28;20269;-64
2021/05/06 08:00:35;;;;;;;5.20;3.50;;;8.40;99.90;;;;;;5072318;28;20196;-64
2021/05/06 08:03:04;;;;;;;5.15;4.40;;;8.20;99.90;;;;;;5074528;28;20648;-64
2021/05/06 08:05:30;;;;;;;7.30;4.53;;;8.20;99.90;;;;;;5077017;28;20659;-64
2021/05/06 08:07:57;;;;;;;7.05;4.00;;;8.40;99.90;;;;;;5074314;28;20191;-64
2021/05/06 08:10:24;;;;;;;5.38;3.78;;;8.40;99.90;;;;;;5073867;28;20196;-63
2021/05/06 08:12:50;;;;;;;4.30;3.90;;;8.40;99.90;;;;;;5074105;28;20232;-64
2021/05/06 08:15:17;;;;;;;4.93;4.40;;;8.60;99.90;;;;;;5072639;28;20624;-64
2021/05/06 08:17:43;;;;;;;3.90;3.47;;;8.70;99.90;;;;;;5072396;28;20208;-64
2021/05/06 08:20:13;;;;;;;9.95;4.10;;;8.60;99.90;;;;;;5073963;28;20538;-64
2021/05/06 08:22:40;;;;;;;7.05;3.80;;;9.10;99.90;;;;;;5073780;28;20659;-64
2021/05/06 08:25:08;;;;;;;3.55;3.25;;;9.10;99.90;;;;;;5073788;28;20210;-65
2021/05/06 08:27:35;;;;;;;4.93;3.75;;;9.20;99.90;;;;;;5073697;28;20559;-64
2021/05/06 08:30:02;;;;;;;4.50;3.95;;;9.50;99.90;;;;;;5074005;28;20199;-64
2021/05/06 08:32:29;;;;;;;7.30;4.13;;;9.60;99.90;;;;;;5072537;28;20695;-64
2021/05/06 08:34:55;;;;;;;5.78;4.20;;;9.90;99.90;;;;;;5074165;28;20211;-64
2021/05/06 08:37:22;;;;;;;5.38;3.50;;;9.90;99.90;;;;;;5073991;28;20355;-64
2021/05/06 08:39:49;;;;;;;6.72;3.88;;;10.00;99.90;;;;;;5073942;28;20200;-65
2021/05/06 08:42:16;;;;;;;4.72;2.90;;;9.70;99.90;;;;;;5073784;28;20199;-66
2021/05/06 08:44:43;;;;;;;5.22;3.30;;;9.40;99.90;;;;;;5073412;28;20318;-66
2021/05/06 08:47:17;;;;;;;3.67;3.33;;;9.60;99.90;;;;;;5073510;28;20219;-66
2021/05/06 08:49:45;;;;;;;3.38;2.90;;;9.30;99.90;;;;;;5073546;28;20584;-66
2021/05/06 08:52:19;;;;;;;9.82;4.03;;;9.40;99.90;;;;;;5073148;28;20236;-65
2021/05/06 08:54:47;;;;;;;14.63;4.15;;;9.30;99.90;;;;;;5072812;28;20529;-65
2021/05/06 08:57:15;;;;;;;4.53;3.05;;;9.30;99.90;;;;;;5073326;28;20215;-65
2021/05/06 08:59:41;;;;;;;8.00;4.32;;;9.00;99.90;;;;;;5073652;28;20655;-66
2021/05/06 09:02:11;;;;;;;8.10;3.85;;;9.20;99.90;;;;;;5073728;28;20250;-65
2021/05/06 09:04:38;;;;;;;4.03;3.58;;;9.20;99.90;;;;;;5073440;28;20204;-65
2021/05/06 09:07:07;;;;;;;4.68;3.33;;;9.10;99.90;;;;;;5072617;28;20207;-65
2021/05/06 09:09:34;;;;;;;6.38;3.50;;;9.40;99.90;;;;;;5073665;28;20214;-65
2021/05/06 09:12:03;;;;;;;11.32;4.82;;;9.40;99.90;;;;;;5076779;28;20255;-65
2021/05/06 09:14:45;;;;;;;4.65;3.25;;;9.50;99.90;;;;;;5076437;28;20208;-65
2021/05/06 09:17:24;;;;;;;11.07;4.47;;;9.50;99.90;;;;;;5077490;28;20254;-65
2021/05/06 09:20:13;;;;;;;3.78;3.25;;;9.40;99.90;;;;;;5077294;28;20200;-65
2021/05/06 09:22:46;;;;;;;3.08;2.85;;;9.20;99.90;;;;;;5077447;28;20181;-64
2021/05/06 09:25:41;;;;;;;7.35;3.95;;;9.40;99.90;;;;;;5077145;28;20203;-65
2021/05/06 09:28:10;;;;;;;9.38;3.55;;;9.40;99.90;;;;;;5076662;28;20206;-66
2021/05/06 09:30:51;;;;;;;3.30;2.70;;;9.40;99.90;;;;;;5077332;28;20214;-66
2021/05/06 09:33:39;;;;;;;5.70;3.33;;;9.50;99.90;;;;;;5077014;28;20583;-66
2021/05/06 09:36:14;;;;;;;5.00;2.88;;;9.50;99.90;;;;;;5077136;28;20564;-66
2021/05/06 09:39:00;;;;;;;3.08;2.83;;;9.60;99.90;;;;;;5077918;28;20209;-66
2021/05/06 09:41:29;;;;;;;3.40;3.10;;;9.40;99.90;;;;;;5077045;28;20676;-66
2021/05/06 09:44:07;;;;;;;5.32;3.53;;;9.60;99.90;;;;;;5077074;28;20597;-67
2021/05/06 09:46:42;;;;;;;4.28;3.25;;;9.60;99.90;;;;;;5076916;28;20199;-66
2021/05/06 09:49:11;;;;;;;5.18;3.03;;;9.50;99.90;;;;;;5076626;28;20207;-66
2021/05/06 09:51:43;;;;;;;8.73;3.33;;;9.40;99.90;;;;;;5076902;28;20212;-66
2021/05/06 09:54:15;;;;;;;10.23;3.50;;;9.60;99.90;;;;;;5076234;28;20581;-66
2021/05/06 09:56:43;;;;;;;4.65;3.20;;;9.80;99.90;;;;;;5075472;28;20214;-65
2021/05/06 09:59:20;;;;;;;5.93;3.70;;;10.00;99.90;;;;;;5077100;28;20188;-64
2021/05/06 10:01:46;;;;;;;7.47;3.58;;;9.90;99.90;;;;;;5059002;28;20203;-65
2021/05/06 10:04:26;;;;;;;7.82;3.50;;;9.90;99.90;;;;;;5078212;28;20644;-65
2021/05/06 10:07:04;;;;;;;5.85;3.35;;;9.90;99.90;;;;;;5078950;28;20200;-66
2021/05/06 10:09:31;;;;;;;5.93;4.05;;;10.00;99.90;;;;;;5078323;28;20215;-66
2021/05/06 10:12:01;;;;;;;7.47;3.50;;;10.10;99.90;;;;;;5077926;28;20304;-66
2021/05/06 10:14:27;;;;;;;7.13;3.42;;;10.40;99.90;;;;;;5078133;28;20279;-66
2021/05/06 10:16:54;;;;;;;5.75;3.60;;;10.30;99.90;;;;;;5078250;28;20529;-66
2021/05/06 10:19:20;;;;;;;6.13;3.28;;;10.00;99.90;;;;;;5077979;28;20231;-66
2021/05/06 10:21:47;;;;;;;4.25;3.75;;;10.10;99.90;;;;;;5078452;28;20204;-66
2021/05/06 10:24:17;;;;;;;8.73;4.15;;;10.00;99.90;;;;;;5078471;28;20260;-66
2021/05/06 10:26:45;;;;;;;5.45;3.20;;;10.10;99.90;;;;;;5078334;28;20211;-66
2021/05/06 10:29:15;;;;;;;5.75;3.65;;;10.30;99.90;;;;;;5078001;28;20184;-66
2021/05/06 10:31:45;;;;;;;7.70;3.70;;;10.10;99.90;;;;;;5077004;28;20262;-67
2021/05/06 10:34:12;;;;;;;8.77;3.30;;;10.20;99.90;;;;;;5078446;28;20200;-66
2021/05/06 10:36:40;;;;;;;5.03;3.80;;;10.00;99.90;;;;;;5077259;28;20245;-66
2021/05/06 10:39:11;;;;;;;4.50;3.30;;;10.10;99.90;;;;;;5060171;28;20196;-66
2021/05/06 10:41:38;;;;;;;7.60;3.95;;;10.10;99.90;;;;;;5078415;28;20218;-65
2021/05/06 10:44:09;;;;;;;6.97;4.35;;;10.10;99.90;;;;;;5079137;28;20215;-66
2021/05/06 10:47:02;;;;;;;7.05;3.53;;;10.20;99.90;;;;;;5078672;28;20222;-66
2021/05/06 10:49:31;;;;;;;9.60;4.28;;;10.00;99.90;;;;;;5077363;28;20204;-64
2021/05/06 10:52:00;;;;;;;5.43;4.32;;;10.00;99.90;;;;;;5074984;28;20216;-64
2021/05/06 10:54:40;;;;;;;7.18;3.53;;;9.90;99.90;;;;;;5075095;28;21102;-66
2021/05/06 10:57:15;;;;;;;7.95;4.65;;;9.80;99.90;;;;;;5076361;28;20199;-67
2021/05/06 10:59:43;;;;;;;7.70;4.85;;;9.70;99.90;;;;;;5075352;28;20199;-67
2021/05/06 11:02:31;;;;;;;5.47;4.10;;;9.60;99.90;;;;;;5075473;28;20188;-67
2021/05/06 11:05:17;;;;;;;7.53;5.00;;;9.60;99.90;;;;;;5075443;28;20192;-67
2021/05/06 11:08:03;;;;;;;11.25;6.03;;;9.50;99.90;;;;;;5076089;28;20198;-67
2021/05/06 11:10:50;;;;;;;8.52;6.20;;;9.40;99.90;;;;;;5074164;28;20569;-66
2021/05/06 11:13:18;;;;;;;8.23;6.13;;;9.20;99.90;;;;;;5076170;28;20736;-66
2021/05/06 11:15:45;;;;;;;12.65;7.22;;;9.40;99.90;;;;;;5075639;28;20206;-66
2021/05/06 11:18:32;;;;;;;7.70;5.20;;;9.60;99.90;;;;;;5074791;28;20194;-66
2021/05/06 11:21:00;;;;;;;7.63;5.45;;;9.40;99.90;;;;;;5074463;28;20199;-65
2021/05/06 11:23:27;;;;;;;7.75;5.13;;;9.30;99.90;;;;;;5074904;28;20212;-65
2021/05/06 11:26:05;;;;;;;10.13;5.88;;;9.20;99.90;;;;;;5074739;28;20198;-65
2021/05/06 11:28:32;;;;;;;8.68;5.65;;;9.20;99.90;;;;;;5075196;28;20203;-65
2021/05/06 11:30:59;;;;;;;8.40;5.53;;;9.20;99.90;;;;;;5075007;28;20283;-65
2021/05/06 11:33:28;;;;;;;14.48;6.32;;;9.20;99.90;;;;;;5074436;28;20675;-66
2021/05/06 11:35:58;;;;;;;6.85;5.40;;;9.40;99.90;;;;;;5073732;28;20195;-65
2021/05/06 11:38:40;;;;;;;17.13;8.90;;;9.50;99.90;;;;;;5074368;28;20204;-65
2021/05/06 11:41:11;;;;;;;22.70;10.93;;;9.60;99.90;;;;;;5074991;28;20246;-65
2021/05/06 11:43:48;;;;;;;10.82;5.85;;;9.50;99.90;;;;;;5074526;28;20219;-65
2021/05/06 11:46:28;;;;;;;12.68;6.50;;;9.40;99.90;;;;;;5074480;28;20596;-65
2021/05/06 11:49:03;;;;;;;4.95;4.35;;;9.20;99.90;;;;;;5074552;28;20188;-65
2021/05/06 11:51:38;;;;;;;8.73;4.88;;;9.10;99.90;;;;;;5074303;28;20215;-65
2021/05/06 11:54:12;;;;;;;8.75;5.13;;;9.10;99.90;;;;;;5073994;28;20240;-65
2021/05/06 11:56:49;;;;;;;9.98;5.85;;;9.20;99.90;;;;;;5074353;28;20180;-65
2021/05/06 11:59:17;;;;;;;10.57;5.80;;;9.30;99.90;;;;;;5073940;28;20184;-65
2021/05/06 12:01:45;;;;;;;7.82;5.75;;;9.40;99.90;;;;;;5073986;28;20196;-65
2021/05/06 12:04:41;;;;;;;6.20;4.30;;;9.40;99.90;;;;;;5074090;28;20199;-65
2021/05/06 12:07:21;;;;;;;3.10;2.80;;;9.30;99.90;;;;;;5072315;28;20199;-65
2021/05/06 12:09:49;;;;;;;2.97;1.77;;;9.40;99.90;;;;;;5074242;28;20234;-65
2021/05/06 12:12:26;;;;;;;2.28;1.73;;;9.20;99.90;;;;;;5073589;28;20222;-65
2021/05/06 12:14:58;;;;;;;1.75;1.30;;;9.20;99.90;;;;;;5074060;28;20207;-66
2021/05/06 12:17:24;;;;;;;1.65;1.55;;;9.20;99.90;;;;;;5074031;28;20257;-66
2021/05/06 12:19:51;;;;;;;1.83;1.73;;;9.30;99.90;;;;;;5073995;28;20640;-66
2021/05/06 12:22:17;;;;;;;1.75;1.65;;;9.40;99.90;;;;;;5074162;28;20208;-66
2021/05/06 12:24:49;;;;;;;1.92;1.70;;;9.30;99.90;;;;;;5073602;28;20204;-66
2021/05/06 12:27:26;;;;;;;4.35;2.28;;;9.40;99.90;;;;;;5073868;28;20670;-65
2021/05/06 12:30:14;;;;;;;1.40;1.30;;;9.60;99.90;;;;;;5072180;28;20203;-65
2021/05/06 12:32:46;;;;;;;1.85;1.27;;;9.40;99.90;;;;;;5073621;28;20306;-65
2021/05/06 12:35:14;;;;;;;1.40;1.30;;;9.50;99.90;;;;;;5073354;28;20663;-65
2021/05/06 12:37:43;;;;;;;2.53;1.65;;;9.50;99.90;;;;;;5073399;28;20192;-65
2021/05/06 12:40:14;;;;;;;2.42;2.17;;;9.40;99.90;;;;;;5073388;28;20214;-65
2021/05/06 12:42:41;;;;;;;8.73;3.20;;;9.20;99.90;;;;;;5073396;28;20200;-65
2021/05/06 12:45:13;;;;;;;3.67;3.38;;;9.20;99.90;;;;;;5073292;28;20208;-66
2021/05/06 12:47:49;;;;;;;3.10;2.80;;;9.10;99.90;;;;;;5073560;28;20663;-65
2021/05/06 12:50:29;;;;;;;12.38;3.72;;;9.20;99.90;;;;;;5073643;28;20207;-65
2021/05/06 12:52:57;;;;;;;4.32;2.67;;;9.20;99.90;;;;;;5073437;28;20318;-65
2021/05/06 12:55:29;;;;;;;3.38;3.15;;;9.20;99.90;;;;;;5055676;28;20239;-65
2021/05/06 12:58:16;;;;;;;4.32;3.75;;;9.00;99.90;;;;;;5073502;28;20208;-65
2021/05/06 13:01:03;;;;;;;4.93;3.60;;;9.00;99.90;;;;;;5060300;28;20567;-65
2021/05/06 13:03:35;;;;;;;8.85;4.50;;;8.90;99.90;;;;;;5070967;28;20206;-65
2021/05/06 13:06:07;;;;;;;4.60;3.75;;;8.90;99.90;;;;;;5073079;28;20282;-65
2021/05/06 13:08:45;;;;;;;4.43;4.00;;;8.90;99.90;;;;;;5062042;28;20196;-65
2021/05/06 13:11:14;;;;;;;5.00;4.60;;;9.10;99.90;;;;;;5071145;28;20665;-65
2021/05/06 13:13:44;;;;;;;4.50;3.75;;;9.10;99.90;;;;;;5072830;28;20223;-65
2021/05/06 13:16:12;;;;;;;4.15;3.75;;;9.10;99.90;;;;;;5073438;28;20192;-65
2021/05/06 13:18:39;;;;;;;4.72;4.38;;;9.20;99.90;;;;;;5073255;28;20219;-65
2021/05/06 13:21:06;;;;;;;5.55;4.05;;;9.20;99.90;;;;;;5073680;28;20651;-65
2021/05/06 13:23:36;;;;;;;4.57;4.07;;;9.20;99.90;;;;;;5073586;28;20207;-65
2021/05/06 13:26:04;;;;;;;6.07;3.97;;;9.20;99.90;;;;;;5071543;28;20656;-65
2021/05/06 13:28:33;;;;;;;5.68;4.13;;;9.40;99.90;;;;;;5073377;28;20248;-65
2021/05/06 13:31:12;;;;;;;4.32;4.03;;;9.50;99.90;;;;;;5073111;28;20210;-65
2021/05/06 13:33:40;;;;;;;9.48;4.82;;;9.50;99.90;;;;;;5073244;28;20326;-65
2021/05/06 13:36:09;;;;;;;4.53;4.13;;;9.60;99.90;;;;;;5073506;28;20204;-65
2021/05/06 13:38:58;;;;;;;6.30;3.75;;;9.50;99.90;;;;;;5073043;28;20207;-65
2021/05/06 13:41:33;;;;;;;6.45;3.78;;;9.60;99.90;;;;;;5073472;28;20228;-66
2021/05/06 13:44:02;;;;;;;10.00;3.22;;;9.30;99.90;;;;;;5072358;28;20214;-66
2021/05/06 13:46:30;;;;;;;3.17;2.30;;;9.20;99.90;;;;;;5073057;28;20230;-66
2021/05/06 13:48:58;;;;;;;2.85;2.63;;;9.30;99.90;;;;;;5074355;28;20196;-66
2021/05/06 13:51:26;;;;;;;6.28;3.20;;;9.30;99.90;;;;;;5073385;28;20222;-66
2021/05/06 13:53:53;;;;;;;4.47;3.08;;;9.40;99.90;;;;;;5073118;28;20675;-66
2021/05/06 13:56:21;;;;;;;2.63;2.42;;;9.30;99.90;;;;;;5072481;28;20208;-66
2021/05/06 13:58:51;;;;;;;3.40;3.08;;;9.30;99.90;;;;;;5075738;28;20206;-66
2021/05/06 14:01:19;;;;;;;3.17;2.80;;;9.20;99.90;;;;;;5076672;28;20617;-66
2021/05/06 14:03:46;;;;;;;4.10;2.90;;;9.00;99.90;;;;;;5076849;28;20743;-65
2021/05/06 14:06:12;;;;;;;5.50;3.05;;;9.00;99.90;;;;;;5076205;28;20212;-65
2021/05/06 14:08:39;;;;;;;6.97;2.80;;;9.00;99.90;;;;;;5075746;28;20200;-65
2021/05/06 14:11:06;;;;;;;4.20;3.40;;;9.00;99.90;;;;;;5075722;28;20196;-65
2021/05/06 14:13:33;;;;;;;8.23;3.67;;;9.10;99.90;;;;;;5076221;28;20350;-65
2021/05/06 14:15:59;;;;;;;4.63;2.15;;;9.20;99.90;;;;;;5076231;28;20293;-65
2021/05/06 14:18:26;;;;;;;3.25;2.38;;;9.10;99.90;;;;;;5075989;28;20191;-65
2021/05/06 14:20:59;;;;;;;4.05;2.85;;;9.30;99.90;;;;;;5076013;28;20196;-65
2021/05/06 14:23:26;;;;;;;3.10;2.90;;;9.20;99.90;;;;;;5076274;28;20337;-67
2021/05/06 14:25:53;;;;;;;3.40;3.10;;;9.00;99.90;;;;;;5074532;28;20211;-65
2021/05/06 14:28:19;;;;;;;7.95;4.85;;;9.00;99.90;;;;;;5075976;28;20242;-65
2021/05/06 14:30:46;;;;;;;4.93;3.38;;;9.10;99.90;;;;;;5075872;28;20226;-65
2021/05/06 14:33:12;;;;;;;3.40;2.50;;;9.00;99.90;;;;;;5075597;28;20242;-65
2021/05/06 14:35:38;;;;;;;11.38;6.00;;;8.70;99.90;;;;;;5075758;28;20200;-65
2021/05/06 14:38:09;;;;;;;16.35;11.05;;;8.90;99.90;;;;;;5075656;28;20204;-65
2021/05/06 14:40:39;;;;;;;8.73;6.45;;;8.60;99.90;;;;;;5075361;28;20645;-65
2021/05/06 14:43:07;;;;;;;4.18;3.78;;;8.90;99.90;;;;;;5075593;28;20207;-65
2021/05/06 14:45:35;;;;;;;9.85;4.20;;;9.20;99.90;;;;;;5075335;28;20188;-65
2021/05/06 14:48:04;;;;;;;4.97;4.50;;;9.20;99.90;;;;;;5075573;28;20210;-65
2021/05/06 14:50:32;;;;;;;3.67;2.35;;;9.10;99.90;;;;;;5075423;28;20563;-65
2021/05/06 14:52:58;;;;;;;4.75;3.40;;;9.20;99.90;;;;;;5075055;28;20228;-65
2021/05/06 14:55:25;;;;;;;3.65;3.30;;;9.30;99.90;;;;;;5075474;28;20207;-65
2021/05/06 14:57:52;;;;;;;4.30;3.90;;;9.40;99.90;;;;;;5075134;28;20200;-65
2021/05/06 15:00:21;;;;;;;9.15;4.80;;;9.50;99.90;;;;;;5075513;28;20206;-65
2021/05/06 15:02:48;;;;;;;7.20;4.50;;;9.40;99.90;;;;;;5075172;28;20196;-65
2021/05/06 15:05:15;;;;;;;10.07;5.13;;;9.50;99.90;;;;;;5075450;28;20246;-65
2021/05/06 15:07:41;;;;;;;5.50;4.10;;;9.80;99.90;;;;;;5075595;28;20652;-65
2021/05/06 15:10:08;;;;;;;5.50;2.88;;;9.80;99.90;;;;;;5073847;28;20211;-66
2021/05/06 15:12:36;;;;;;;6.43;3.58;;;9.60;99.90;;;;;;5075417;28;20195;-65
2021/05/06 15:15:05;;;;;;;4.18;3.10;;;9.50;99.90;;;;;;5074914;28;20238;-65
2021/05/06 15:17:31;;;;;;;5.07;3.78;;;9.20;99.90;;;;;;5074895;28;20283;-65
2021/05/06 15:19:57;;;;;;;3.50;3.10;;;9.20;99.90;;;;;;5075239;28;20210;-65
2021/05/06 15:22:25;;;;;;;3.10;2.90;;;9.20;99.90;;;;;;5074851;28;20674;-66
2021/05/06 15:24:52;;;;;;;4.38;3.50;;;9.40;99.90;;;;;;5075040;28;20208;-66
2021/05/06 15:27:19;;;;;;;3.10;2.90;;;9.40;99.90;;;;;;5075211;28;20211;-66
2021/05/06 15:29:46;;;;;;;3.28;2.20;;;9.40;99.90;;;;;;5075505;28;20639;-66
2021/05/06 15:32:13;;;;;;;3.50;3.20;;;9.30;99.90;;;;;;5075213;28;20205;-66
2021/05/06 15:34:40;;;;;;;3.95;3.17;;;9.30;99.90;;;;;;5075167;28;20224;-66
2021/05/06 15:37:08;;;;;;;4.45;3.53;;;9.30;99.90;;;;;;5074587;28;20227;-64
2021/05/06 15:39:39;;;;;;;7.43;3.75;;;9.20;99.90;;;;;;5073221;28;20204;-64
2021/05/06 15:42:05;;;;;;;9.75;7.00;;;9.30;99.90;;;;;;5074538;28;20194;-64
2021/05/06 15:44:32;;;;;;;10.95;5.25;;;9.20;99.90;;;;;;5074635;28;20682;-64
2021/05/06 15:46:59;;;;;;;4.85;3.30;;;9.30;99.90;;;;;;5074401;28;20208;-67
2021/05/06 15:49:34;;;;;;;4.07;3.78;;;9.30;99.90;;;;;;5074271;28;20200;-66
2021/05/06 15:52:02;;;;;;;3.17;2.80;;;9.30;99.90;;;;;;5073938;28;20202;-66
2021/05/06 15:54:29;;;;;;;4.05;2.90;;;9.30;99.90;;;;;;5072752;28;20235;-65
2021/05/06 15:56:56;;;;;;;3.85;3.50;;;9.30;99.90;;;;;;5072758;28;20200;-65
2021/05/06 15:59:23;;;;;;;7.80;3.20;;;9.20;99.90;;;;;;5074433;28;20545;-65
2021/05/06 16:01:50;;;;;;;6.40;2.95;;;9.20;99.90;;;;;;5074339;28;20238;-65
2021/05/06 16:04:22;;;;;;;5.15;3.00;;;9.10;99.90;;;;;;5074441;28;20212;-65
2021/05/06 16:06:49;;;;;;;3.67;3.08;;;9.10;99.90;;;;;;5073137;28;20204;-66
2021/05/06 16:09:15;;;;;;;9.68;4.65;;;9.10;99.90;;;;;;5074115;28;20208;-64
2021/05/06 16:11:42;;;;;;;5.18;4.10;;;9.10;99.90;;;;;;5074207;28;20192;-65
2021/05/06 16:14:08;;;;;;;5.25;3.83;;;9.10;99.90;;;;;;5074517;28;20228;-65
2021/05/06 16:16:35;;;;;;;3.30;3.00;;;9.10;99.90;;;;;;5073438;28;20204;-65
2021/05/06 16:19:02;;;;;;;3.70;3.40;;;9.10;99.90;;;;;;5072801;28;20218;-66
2021/05/06 16:21:28;;;;;;;3.67;3.38;;;9.20;99.90;;;;;;5073290;28;20291;-66
2021/05/06 16:23:55;;;;;;;5.60;4.10;;;9.20;99.90;;;;;;5074492;28;20211;-66
2021/05/06 16:26:21;;;;;;;4.53;3.80;;;9.30;99.90;;;;;;5074492;28;20215;-66
2021/05/06 16:28:48;;;;;;;5.10;3.25;;;9.20;99.90;;;;;;5056348;28;20204;-65
2021/05/06 16:31:14;;;;;;;3.75;3.38;;;9.10;99.90;;;;;;5072373;28;20257;-65
2021/05/06 16:33:46;;;;;;;3.35;3.05;;;9.00;99.90;;;;;;5072222;28;20223;-65
2021/05/06 16:36:19;;;;;;;8.25;4.80;;;9.00;99.90;;;;;;5073949;28;20215;-65
2021/05/06 16:41:45;;;;;;;5.82;5.32;;;9.10;99.90;;;;;;5074056;28;20216;-66
2021/05/06 16:44:27;;;;;;;4.63;4.22;;;9.00;99.90;;;;;;5073757;28;20212;-65